Walnut Heights, Indiana
Current Conditions -  °F | °C
As of 11:07 AM on Thursday 27 Nov 2014 (Local Time) from KBMG Reporting Station
Haze Haze  
Wind Chill: 21°   Ceiling: 2800
Heat Index: 28°   Visibility: 6mi
Dew Point: 22°   Wind: 7mph
Humidity: 78%   Direction: 280°W
Pressure: 30.36"   Gusts: NA
Location:  38.8737°N, 86.4563°W
Report Text: KBMG 271607Z 28006KT 6SM HZ BKN028 OVC033 M02/M06 A3036 RMK AO2 T10221056
Loading
Personal Weather Stations






























Interactive Weather Map New forecast layout! Learn more

10-Day Weather Forecast

Advertisements
Track Severe Weather on mobile